Squad war stats
Faction Empire
Rank 107
TrueSkill™ 28,873
Reputation 18,395
Wars 285
Wins 194
Draws 30
Losses 61
Uplinks captured 11,627
Uplinks saved 4,953
Last updated 26 minutes ago
Mu 29.492
Sigma 0.177
Last War 1d
Current War RS-Force
Battle history
Date Opp. skill Opponent Result Score Opp. score Skill result Skill before Mu before Sigma before
2019-03-24 98% R2Destroyers WIN 45 8 0 28873 29.492 0.177
2019-03-20 96% windows-revenge WIN 45 14 0 28873 29.492 0.177
2019-03-17 97% SenateGuards WIN 41 39 0 28873 29.492 0.177
2019-03-15 98% POLSKA--WIN-905 WIN 45 35 0 28873 29.492 0.177
2019-03-13 78% BlueSaberJedi DRAW 45 45 0 28873 29.492 0.177
2019-03-10 103% Indeland...Jedis LOSS 30 36 +106 28767 30.339 0.449
2019-03-07 99% BlackWingRising WIN 45 29 +1 28766 30.339 0.449
2019-03-03 99% Ackbar's_Fist WIN 45 25 0 28766 30.339 0.449
2019-03-01 95% thunderkings WIN 45 33 0 28766 30.339 0.449
2019-02-27 98% Matrixrebel16 WIN 45 26 0 28766 30.338 0.449
2019-02-24 107% Indeland...Jedis WIN 42 40 +1,047 27719 29.996 0.651
2019-02-22 103% OZZY-ELITE WIN 41 29 +129 27590 29.970 0.680
2019-02-20 102% Jedi_Joe'sOrder WIN 45 11 +59 27531 29.959 0.694
2019-02-17 93% THE.GIRONDIN'S WIN 45 4 +26 27505 29.954 0.700
2019-02-15 105% _UnNamed_ WIN 35 34 +303 27202 29.884 0.766
2019-02-13 105% FRancE WIN 45 8 +327 26875 29.809 0.838
2019-01-30 103% Force_Unchained WIN 38 34 +125 27660 29.784 0.607
2019-01-23 108% Havoc_Padawans WIN 45 35 +878 26782 29.527 0.784
2019-01-11 105% JEDI.NIGHTS WIN 38 34 +362 27190 29.437 0.642
2019-01-02 102% Force-awakens WIN 45 11 +82 27668 29.421 0.501
2018-12-26 96% FinnLuke WIN 45 8 +37 27631 29.413 0.509
2018-12-14 103% Ka9ZrZ WIN 45 16 +168 27463 29.376 0.547
2018-12-06 104% Yoda'sMafia DRAW 45 45 0 27463 29.376 0.547
2018-11-22 100% Padawans-LF DRAW 45 45 0 28373 29.376 0.287
2018-11-11 93% FrancEvolution2 LOSS 38 42 -5 29008 29.383 0.107
2018-11-07 107% Havoc_Padawans WIN 37 32 +1,670 27338 28.514 0.336
2018-11-05 105% Rogue-Squadron LOSS 32 41 +9 27329 28.518 0.340
2018-10-29 102% RebelRascals WIN 45 31 +433 27386 28.365 0.280
2018-10-21 103% Templar_Academy LOSS 34 35 +143 27733 28.746 0.290
2018-10-19 98% RUS•JEDI WIN 45 44 +50 27683 28.733 0.300
2018-10-12 75% Rogue_Enclave DRAW 45 45 0 28173 28.733 0.160
2018-10-09 102% Jedi_Remnant WIN 45 30 +303 27870 28.638 0.220
2018-10-06 102% China-义军活跃斗士 DRAW 45 45 0 27870 28.638 0.220
2018-09-30 96% RoughTeam WIN 41 35 +80 27790 28.595 0.230
2018-09-23 98% obw WIN 45 28 +16 28264 28.587 0.093
2018-09-17 102% HowlingWookie's WIN 41 40 +503 27761 28.377 0.176
2018-09-10 95% LatinoSquad WIN 43 28 +70 27691 28.323 0.181
2018-09-06 101% Rogue_Elite WIN 45 15 +307 27384 28.194 0.231
2018-08-31 104% GummyBears LOSS 38 45 +160 27224 29.099 0.536
2018-08-22 103% Jedi-Master's LOSS 36 45 +174 27680 29.614 0.553
2018-08-15 98% HeavySaber WIN 42 31 +114 28056 29.582 0.436
2018-08-07 92% Matrixrebel16 WIN 45 16 +16 28530 29.576 0.299
2018-08-01 99% Light-This-Force DRAW 45 45 0 28530 29.576 0.299
2018-07-29 70% Elite_War LOSS 28 45 -14 28544 29.593 0.300
2018-07-25 100% Force3K_JediShdw WIN 42 37 +1 28543 29.593 0.300
2018-07-19 106% Spanish_Rebels_2 LOSS 40 45 +38 28505 29.606 0.315
2018-07-16 91% LatinoSquad WIN 45 39 0 28505 29.606 0.315
2018-07-08 96% Kenobi-Academy LOSS 35 42 -24 29019 29.651 0.181
2018-07-05 101% PartyLikeLando LOSS 33 37 +28 28991 29.736 0.213
2018-07-02 98% Outlaw1234 WIN 45 13 0 28991 29.736 0.213
2018-06-29 99% Deutsche-Falken2 WIN 43 30 +28 28963 29.729 0.219
2018-06-27 95% SunDevilSquadron WIN 45 21 +1 28962 29.729 0.219
2018-06-23 96% WookieWarWagon WIN 45 21 0 28962 29.729 0.219
2018-06-18 98% Quebec_rebelle_a WIN 45 39 0 28962 29.729 0.219
2018-06-13 97% n7eclipse WIN 37 32 +4 28958 29.728 0.220
2018-06-03 100% PartyLikeLando LOSS 23 45 -1 29659 29.730 0.020
2018-05-31 99% .REPÚBLICA-JEDI. WIN 40 28 0 29659 29.730 0.020
2018-05-27 98% EscuadrónAzul DRAW 45 45 0 29659 29.730 0.020
2018-05-20 98% PartyLikeLando LOSS 31 41 -1 29660 29.732 0.020
2018-05-17 99% Fire_and_Ice LOSS 33 43 -2 29662 29.734 0.020
2018-05-14 100% Jedi_Remnant WIN 39 32 0 29662 29.734 0.020
2018-05-11 97% JEDI.NIGHTS WIN 45 35 0 29662 29.734 0.020
2018-05-06 96% RebornMasters WIN 45 6 0 29662 29.734 0.020
2018-05-02 95% FenixSqArgentina WIN 45 18 0 29662 29.734 0.020
2018-04-29 92% BlackWingRage WIN 45 35 0 29662 29.734 0.020
2018-04-26 95% BlastersInSpace WIN 45 10 0 29662 29.734 0.020
2018-04-22 94% W.A.R.Academy WIN 45 28 0 29662 29.733 0.021
2018-04-17 93% n7eclipse WIN 38 27 0 29662 29.733 0.021
2018-04-11 98% PartylikeHAVOC LOSS 23 41 0 29662 29.733 0.021
2018-04-07 96% RUCOSJEDI WIN 45 30 0 29662 29.733 0.021
2018-04-04 96% DETROIT♤players WIN 45 36 +1 29661 29.733 0.021
2018-03-28 93% skulltrooperz WIN 45 32 0 29661 29.733 0.021
2018-03-26 100% PartyLikeLando WIN 38 33 +15 29646 29.721 0.021
2018-03-24 96% Templar_Academy WIN 44 35 0 29646 29.721 0.021
2018-03-22 100% Alderaan-Memory WIN 41 34 +5 29641 29.716 0.021
2018-03-17 95% ozzydog WIN 45 14 0 29641 29.716 0.021
2018-03-14 91% Rebel'Command WIN 45 11 0 29641 29.716 0.021
2018-03-11 100% Kenobi-Academy LOSS 41 43 0 29641 29.716 0.021
2018-03-08 96% DejavuChaos LOSS 30 40 0 29641 29.716 0.021
2018-03-05 64% Texas_Garrison WIN 45 24 0 29641 29.716 0.021
2018-03-03 92% BlastersInSpace WIN 45 3 0 29641 29.716 0.021
2018-03-01 103% havoc_rebellion WIN 45 41 +652 28989 29.152 0.047
2018-02-25 102% SpaceBarons DRAW 45 45 0 28989 29.152 0.047
2018-02-23 100% Force3K_JediShdw DRAW 45 45 0 28989 29.152 0.047
2018-02-20 102% USAKnightsReborn WIN 44 30 +397 28592 28.970 0.108
2018-02-18 98% Spanish-Alliance WIN 45 21 +55 28537 28.935 0.114
2018-02-16 104% POLAND® DRAW 45 45 0 28537 28.935 0.114
2018-02-12 100% Havoc_Sentinels LOSS 30 45 -250 28787 29.955 0.334
2018-02-09 99% TheWetKitties WIN 45 5 0 28787 29.955 0.334
2018-02-05 100% _DHARMA_ WIN 45 13 +1 28786 29.955 0.334
2018-02-02 99% LikeaBoett WIN 45 0 0 28786 29.955 0.334
2018-01-25 103% Spanish_Rebels_2 LOSS 32 45 +50 29226 29.982 0.216
2018-01-21 99% Snow-walkers WIN 45 16 0 29226 29.982 0.216
2018-01-18 95% RollingTundra WIN 45 3 +2 29224 29.982 0.216
2018-01-12 98% PartyLikeLando DRAW 45 45 0 29224 29.982 0.216
2018-01-04 97% Ewoks-revenge WIN 41 18 0 29714 29.982 0.076
2017-12-28 101% W.A.R.Yoda LOSS 30 32 +7 29707 29.986 0.080
2017-12-24 97% ZenJedi WIN 45 13 0 29707 29.986 0.080
2017-12-21 100% Donate-n-Strike DRAW 45 45 0 29707 29.986 0.080
2017-12-14 97% espana015 WIN 45 20 0 29707 29.986 0.080
2017-12-10 101% Marauders-Bravo LOSS 30 39 +46 29661 30.110 0.128
2017-12-08 101% ShadyRebels24 DRAW 45 45 0 29661 30.110 0.128
2017-12-05 98% HooversRebellion DRAW 45 45 0 29661 30.110 0.128
2017-12-01 97% TheRedCircle WIN 45 12 0 29661 30.110 0.128
2017-11-28 101% Marauders-Bravo DRAW 45 45 0 29661 30.110 0.128
2017-11-27 98% Leeroy_Jenkins WIN 45 35 0 29661 30.110 0.128
2017-11-24 99% Empire's_end WIN 40 31 +14 29647 30.107 0.131
2017-11-21 101% GummyBears DRAW 45 45 0 29647 30.107 0.131
2017-11-18 96% Jedi's-for-Hire2 WIN 45 5 0 29647 30.107 0.131
2017-11-16 98% HooversRebellion DRAW 45 45 0 29647 30.107 0.131
2017-11-13 99% BRASIL-DOS-JEDIS DRAW 45 45 0 29647 30.107 0.131
2017-11-10 94% LaRoca WIN 42 15 0 29647 30.107 0.131
2017-11-08 101% TeamGibson DRAW 45 45 0 29647 30.107 0.131
2017-11-06 100% Czech.Prometheus DRAW 45 45 0 29647 30.107 0.131
2017-11-04 97% SquadLife WIN 45 13 0 29647 30.107 0.131
2017-11-01 101% BrasilBrasukas LOSS 36 45 +57 29590 30.292 0.200
2017-10-27 101% BarefootPhoenix DRAW 45 45 0 29590 30.292 0.200
2017-10-24 99% Seekers_Of_Light WIN 34 32 0 29590 30.292 0.200
2017-10-22 96% Rebel_Terror WIN 45 14 0 29590 30.292 0.200
2017-10-19 95% Rebel's--Elite WIN 45 31 0 29590 30.292 0.200
2017-10-17 96% R2Destroyers WIN 45 1 0 29590 30.292 0.200
2017-10-13 97% GreeceWarriors WIN 44 5 0 29590 30.292 0.200
2017-10-08 96% Gudbruire-elite WIN 45 23 +23 29567 30.283 0.204
2017-10-06 101% DejavuDeathsquad LOSS 38 45 +24 29543 30.325 0.223
2017-10-01 84% FENIX_ESCUADRON WIN 45 1 0 29543 30.325 0.223
2017-09-13 98% PartyLikeLando DRAW 45 45 0 29543 30.325 0.223
2017-09-10 101% n7eclipse WIN 45 40 +68 29475 30.310 0.239
2017-09-06 97% SunDevilSquadron WIN 45 25 0 29475 30.310 0.239
2017-09-02 98% OzzieRebels WIN 39 28 0 29475 30.310 0.239
2017-08-31 99% Havoc_Legends WIN 45 43 +4 29471 30.309 0.239
2017-08-29 97% Ackbar's_Cantina WIN 40 24 +2 29469 30.309 0.240
2017-08-27 92% RebelsRaiders DRAW 45 45 0 29469 30.309 0.240
2017-08-22 97% JEDI'S_REVENGE WIN 45 4 0 29469 30.309 0.240
2017-08-20 99% MiserySquad1E DRAW 45 45 0 29469 30.309 0.240
2017-08-17 101% _NAMELESS_ LOSS 14 45 +13 29456 30.335 0.251
2017-08-14 98% ozzydog WIN 41 23 +1 29455 30.335 0.251
2017-08-10 97% MindTrick2 WIN 45 6 0 29455 30.335 0.251
2017-08-07 108% PartylikeChewy LOSS 31 45 0 29455 30.335 0.251
2017-08-04 91% U-JUSGot-Tbagged WIN 45 0 0 29455 30.335 0.251
2017-08-02 98% JediProphecy WIN 38 21 +12 29443 30.332 0.254
2017-07-29 95% W.A.R.Younglings WIN 41 26 +1 29442 30.332 0.254
2017-07-27 98% _UnNamed_ DRAW 45 45 0 29442 30.332 0.254
2017-07-24 92% Germany's-force2 WIN 45 15 0 29442 30.332 0.254
2017-07-22 99% Kenobi-Prep WIN 45 37 +152 29290 30.275 0.281
2017-07-19 94% BRASIL(CWB)WAR.. WIN 45 25 +13 29277 30.271 0.284
2017-07-17 98% Yoda'sMafia WIN 45 17 +195 29082 30.176 0.313
2017-07-14 97% ShinnySeventh WIN 45 7 +1 29081 30.176 0.313
2017-07-09 93% JEDI-SQUAD WIN 45 8 +5 29076 30.175 0.314
2017-07-06 100% Ackbar's_Revenge WIN 40 21 +411 28753 29.992 0.354
2017-07-04 101% Spanish_Rebels_2 LOSS 31 40 +38 28785 30.082 0.371
2017-07-02 95% Don8tors WIN 42 11 +9 28881 30.080 0.343
2017-06-28 100% ~FORCE~Kenobi WIN 38 37 +454 28532 29.880 0.385
2017-06-26 97% Catalunya-lliure WIN 45 7 +15 28622 29.877 0.359
2017-06-23 98% LikeaBoett WIN 45 0 +60 28632 29.862 0.351
2017-06-21 99% FranceMaitreJedi WIN 45 36 +214 28488 29.791 0.372
2017-06-18 95% French'okkoana WIN 45 3 +72 28521 29.766 0.356
2017-06-16 100% RUS(RED-ARMY) WIN 45 19 +242 28349 29.695 0.384
2017-06-12 96% BlastersInSpace WIN 45 9 +70 28419 29.672 0.358
2017-06-06 98% Light-This-Force WIN 43 5 +48 28581 29.660 0.308
2017-06-03 97% Jedi's-for-Hire2 WIN 45 14 +56 28630 29.641 0.289
2017-06-01 98% TurkAwakens WIN 45 5 +105 28630 29.605 0.278
2017-05-30 99% Hungary_Squad LOSS 34 35 +2 28663 29.730 0.305
2017-05-27 99% alpha-chaos WIN 45 17 +116 28617 29.696 0.308
2017-05-25 98% Catalunya-lliure WIN 45 5 +59 28663 29.681 0.291
2017-05-23 97% LiveFreeorSuffer WIN 45 4 +58 28675 29.663 0.282
2017-05-20 99% BlueRenegade WIN 45 7 +16 28764 29.660 0.256
2017-05-18 100% Spanish_Rebels_2 DRAW 45 45 0 28799 29.660 0.246
2017-05-15 98% Share WIN 43 2 +3 28936 29.659 0.207
2017-05-12 99% ROGUE-SCOUNDRELS WIN 45 43 +75 28931 29.634 0.201
2017-05-10 97% Escuadrón_Skull WIN 45 3 +1 29035 29.634 0.171
2017-05-08 99% DEUTSCH(^_^) WIN 42 35 +57 29083 29.615 0.152
2017-05-06 98% EliteRedSquad WIN 44 7 +3 29150 29.614 0.133
2017-05-04 98% JeDi2 WIN 45 5 +1 29219 29.614 0.113
2017-05-02 97% RebelRepublicans WIN 45 3 0 29289 29.614 0.093
2017-04-30 100% Han's-watchman WIN 44 14 +106 29253 29.560 0.088
2017-04-28 98% A_New_Hope_1 WIN 44 16 0 29323 29.560 0.068
2017-04-26 100% .REPÚBLICA-JEDI. WIN 45 20 +18 29375 29.554 0.051
2017-04-23 103% ~FORCE~ LOSS 37 45 0 29480 29.554 0.021
2017-04-21 98% Mings_Marauders WIN 45 5 0 29533 29.554 0.006
2017-04-18 98% REbEl WIN 45 5 0 29533 29.554 0.006
2017-04-15 99% capsule-corps WIN 41 17 0 29533 29.554 0.006
2017-04-12 99% capsule-corps WIN 45 2 0 29533 29.554 0.006
2017-04-09 98% U-JUSGot-Tbagged WIN 45 0 0 29533 29.554 0.006
2017-04-07 100% Blackwingrisque WIN 45 37 0 29533 29.554 0.006
2017-04-03 100% Havoc_Recon LOSS 39 44 0 29533 29.554 0.006
2017-03-30 99% Don8tors WIN 34 9 0 29533 29.554 0.006
2017-03-28 99% Rogue-Outcasts WIN 36 35 +1 29532 29.554 0.006
2017-03-25 100% GalacticDONATERS WIN 45 44 0 29532 29.554 0.006
2017-03-23 99% Jedi_Squad WIN 45 1 0 29532 29.554 0.006
2017-03-21 102% DejavuDeathsquad LOSS 29 40 0 29532 29.554 0.006
2017-03-17 98% CitizensRebels WIN 45 3 0 29532 29.554 0.006
2017-03-14 87% GoW_GodzOfWar WIN 44 14 0 29532 29.554 0.006
2017-03-11 99% Run_and_Gun WIN 45 0 0 29532 29.554 0.006
2017-03-09 99% havoc_u4ea WIN 45 15 0 29532 29.554 0.006
2017-03-07 100% Rebel's-Prime WIN 45 6 0 29532 29.554 0.006
2017-03-03 99% Iron_Rebels_Alph DRAW 45 45 0 29532 29.554 0.006
2017-02-28 100% _NAMELESS_ LOSS 34 37 0 29532 29.554 0.006
2017-02-25 100% Xwingfalcons LOSS 43 45 -10 29542 29.565 0.007
2017-02-23 99% JediProphecy WIN 44 39 0 29542 29.565 0.007
2017-02-20 98% Kenobi-Prep LOSS 42 45 -521 30063 30.157 0.027
2017-02-18 112% Havoc_Sentinels LOSS 18 43 0 30063 30.157 0.027
2017-02-16 98% Ultimate-Rebels WIN 38 3 0 30063 30.157 0.027
2017-02-14 97% TheRebelMachine WIN 42 4 0 30063 30.157 0.027
2017-02-11 102% Dragon-Battalion WIN 40 38 +51 30012 30.108 0.028
2017-02-09 93% Havoc_RAJC DRAW 45 45 0 30012 30.108 0.028
2017-02-06 99% Lions-Battalion WIN 41 33 0 30012 30.108 0.028
2017-02-04 102% Clone_Killers WIN 29 25 +338 29674 29.807 0.038
2017-02-02 98% OuterRimRioters WIN 45 19 0 29674 29.807 0.038
2017-01-30 98% Futuristicdragon WIN 45 0 0 29674 29.807 0.038
2017-01-28 99% The-last-line WIN 45 1 0 29674 29.807 0.038
2017-01-25 118% The_X_Squad LOSS 37 45 0 29674 29.807 0.038
2017-01-23 100% ULTRAS-Awakens WIN 41 29 +53 29621 29.776 0.044
2017-01-19 98% Padawan_Learner WIN 42 41 0 29621 29.776 0.044
2017-01-17 99% R3B3LS-1 WIN 45 15 0 29621 29.776 0.044
2017-01-11 98% Swedenarmy WIN 45 1 0 29621 29.776 0.044
2017-01-09 100% Force)(Majeure WIN 45 15 +5 29616 29.774 0.045
2017-01-07 99% Kenobi-Prep WIN 45 25 0 29616 29.774 0.045
2017-01-05 102% OmegaBrotherhood LOSS 41 45 0 29616 29.774 0.045
2017-01-02 99% TythonsJedi WIN 42 4 0 29616 29.774 0.045
2016-12-31 99% Templar_Jedi WIN 36 13 +8 29608 29.771 0.047
2016-12-28 109% Rogue-Squadron LOSS 29 43 0 29608 29.771 0.047
2016-12-24 99% Empire's_end WIN 45 31 0 29608 29.771 0.047
2016-12-21 103% ROgue-Battalion WIN 38 36 +120 29488 29.658 0.049
2016-12-16 101% W.A.R.Younglings LOSS 35 36 0 29488 29.658 0.049
2016-12-11 102% Elite-Chaos LOSS 34 45 0 29488 29.658 0.049
2016-12-07 100% France-Dagobah LOSS 31 34 -13 29501 29.723 0.063
2016-12-04 100% JAPAN-JEDI LOSS 24 35 +5 29496 29.758 0.075
2016-12-01 101% Marauders-Bravo LOSS 40 45 +9 29487 29.764 0.079
2016-11-26 116% W.A.R.Jedi LOSS 19 45 0 29487 29.764 0.079
2016-11-23 100% Alliance_HQ WIN 42 23 0 29487 29.764 0.079
2016-11-21 99% Elite_Camp WIN 45 21 0 29487 29.764 0.079
2016-11-18 99% Yoda's-Revenge WIN 41 12 0 29487 29.764 0.079
2016-11-16 99% RED_AKULA WIN 44 5 +41 29446 29.746 0.086
2016-11-14 99% RED_AKULA WIN 40 10 +79 29367 29.690 0.092
2016-11-12 35% Nugmeister WIN 36 21 0 29367 29.690 0.092
2016-11-10 101% NewOrder-Jedi LOSS 34 45 0 29367 29.691 0.092
2016-11-07 102% BrasilBrasukas LOSS 39 42 0 29367 29.691 0.092
2016-11-05 99% SkywalkersPride LOSS 43 45 0 29367 29.696 0.094
2016-11-03 60% техно WIN 45 0 0 29367 29.696 0.094
2016-11-01 101% TeamGibson LOSS 31 45 +22 29345 29.730 0.110
2016-10-29 94% Qui-gon-Troops WIN 45 0 0 29345 29.730 0.110
2016-10-27 101% Rus-Squadron LOSS 44 45 +19 29326 29.763 0.125
2016-10-24 96% AUSSIE.REBELS WIN 45 11 0 29326 29.763 0.125
2016-10-21 101% BrowncoatsWash WIN 42 14 +132 29194 29.725 0.152
2016-10-18 101% DEUTSCH(^_^) LOSS 36 40 +1 29193 29.726 0.152
2016-10-16 95% Yodasghost WIN 39 19 0 29193 29.726 0.152
2016-10-12 99% BattleRaxDestroy WIN 44 20 +21 29172 29.720 0.157
2016-10-10 100% YAVIN4 WIN 35 27 +202 28970 29.574 0.173
2016-10-08 104% Mexico2015 WIN 40 29 +397 28573 29.237 0.190
2016-10-06 100% OmiSquad WIN 34 31 +192 28381 29.082 0.200
2016-10-03 99% Star-Crushers WIN 41 3 +188 28193 28.995 0.229
2016-10-01 103% AUSSIE.REBELS WIN 45 20 +869 27324 28.528 0.344
2016-09-29 11% Rebelz4Ever WIN 38 26 +1 27323 28.526 0.344
2016-09-26 74% Rebel's-Prime WIN 38 25 0 27323 28.526 0.344
2016-09-24 89% Lions-Battalion WIN 45 13 +15 27308 28.521 0.347
2016-09-20 75% Kenobi-Prep LOSS 39 41 -99 27407 28.641 0.352
2016-09-17 100% ShadyRebellion24 WIN 32 23 +531 26876 28.386 0.431
2016-09-14 92% Cosmoknights WIN 34 28 +167 26709 28.297 0.454
2016-09-10 101% BrasilBrasukas LOSS 17 45 +17 26692 29.112 0.691
2016-09-06 100% RebelsYell WIN 40 27 +933 25759 28.662 0.830
2016-09-04 78% argentina1983 WIN 43 30 +4 25755 28.661 0.830
2016-09-02 115% SpaceBarons LOSS 17 41 +4 25751 28.663 0.832
2016-08-30 109% RUS•JEDI LOSS 29 45 +27 25724 28.681 0.845
2016-08-27 104% JAPAN-JEDI WIN 43 40 +1,683 24041 27.732 1.055
2016-08-25 76% RESISTENCIABR LOSS 38 45 -895 24936 29.290 1.244
2016-08-22 55% LukesRightHand WIN 35 27 +108 24828 29.243 1.261
2016-08-20 51% LukesRightHand WIN 41 15 +157 24671 29.163 1.283
2016-08-18 80% ShadyRebellion24 WIN 42 27 +55 24616 29.150 1.295
2016-08-12 132% RebeL LOSS 32 45 0 24616 29.150 1.295
2016-08-08 113% havoc_agents LOSS 24 45 +21 24595 29.167 1.306
2016-08-06 117% W.A.R.United LOSS 8 45 +8 24587 29.171 1.310
2016-08-03 87% havoc_felix DRAW 45 45 0 24587 29.171 1.310
2016-07-31 83% Sudamerican_jedi WIN 45 41 +519 24068 28.961 1.398
2016-07-28 91% Ackbar's_Fist WIN 45 39 +1,101 22967 28.486 1.577
2016-07-25 81% TeamGibson LOSS 30 40 -1,311 24278 31.746 2.134
2016-07-23 97% Havoc_Sentinels LOSS 42 45 +66 24212 32.037 2.236
2016-07-20 86% Falcon-Battalion WIN 44 36 +2,140 22072 30.991 2.548
2016-07-17 114% havoc_agents DRAW 45 45 0 22072 30.991 2.548
2016-07-15 117% Havocs_RuffNecks LOSS 40 45 +145 21927 31.174 2.642
2016-07-12 87% havoc_knights WIN 39 36 +2,330 19597 30.214 3.033
2016-07-09 93% Havoc_Sentinels LOSS 17 45 +105 19492 31.040 3.299
2016-07-07 81% Italian212th WIN 41 26 +3,075 16417 29.735 3.805
2016-07-04 230% YAVIN4 WIN 39 32 +10,093 6324 24.394 5.163
2016-06-30 163% YAVIN8 LOSS 35 43 +704 5620 29.702 6.880
2016-06-24 100% Darfkillers WIN 39 13 +5,620 0 25.000 8.333
*Note: Wars from before June 22nd 2016 are not included.